Terminal Aerodrome Forecast
Issued by NWS Cleveland, OH

Home | Current Version | Previous Version | Text Only | Print | Product List | Glossary On
Versions: 1 2 3 4 5 6 7 8 9 10 11 12 13 14 15 16 17 18 19 20 21 22 23 24 25 26
079
FTUS41 KCLE 262012 AAB
TAFCLE
TAF AMD
KCLE 262012Z 2620/2724 19010KT P6SM -SHRA BKN040 OVC070
      TEMPO 2621/2623 3SM SHRA OVC015
     FM270100 20007KT 6SM -SHRA VCTS BKN025CB OVC035
      TEMPO 2701/2703 2SM -TSRA BKN015CB
     FM270400 20006KT 5SM BR BKN015
     FM270700 20005KT 4SM BR OVC008
     FM271400 22006KT P6SM OVC015
     FM271800 23008KT P6SM BKN025=

USA.gov is the U.S. government's official web portal to all federal, state and local government web resources and services.